createdAt,value
2018-03-01T00:01:00.433Z,35.00
2018-03-01T00:03:28.035Z,34.90
2018-03-01T00:05:56.379Z,34.80
2018-03-01T00:08:23.968Z,34.70
2018-03-01T00:10:52.385Z,34.80
2018-03-01T00:13:20.754Z,34.90
2018-03-01T00:15:49.098Z,34.90
2018-03-01T00:18:16.693Z,34.90
2018-03-01T00:20:45.029Z,34.70
2018-03-01T00:23:12.630Z,34.70
2018-03-01T00:25:40.206Z,34.70
2018-03-01T00:28:07.802Z,35.00
2018-03-01T00:30:35.378Z,34.90
2018-03-01T00:33:02.974Z,35.30
2018-03-01T00:35:30.546Z,35.20
2018-03-01T00:37:58.147Z,35.00
2018-03-01T00:40:25.712Z,35.00
2018-03-01T00:42:53.310Z,35.00
2018-03-01T00:45:21.645Z,34.90
2018-03-01T00:47:49.237Z,34.90
2018-03-01T00:50:16.816Z,34.60
2018-03-01T00:52:44.414Z,34.80
2018-03-01T00:55:11.983Z,34.90
2018-03-01T00:57:39.577Z,34.80
2018-03-01T01:00:07.913Z,34.50
2018-03-01T01:02:35.495Z,34.50
2018-03-01T01:05:03.090Z,34.70
2018-03-01T01:07:30.664Z,35.00
2018-03-01T01:09:58.256Z,34.90
2018-03-01T01:12:25.835Z,34.90
2018-03-01T01:14:53.423Z,34.90
2018-03-01T01:17:20.997Z,34.90
2018-03-01T01:19:48.598Z,34.90
2018-03-01T01:22:16.177Z,34.90
2018-03-01T01:24:43.773Z,34.90
2018-03-01T01:27:11.349Z,34.70
2018-03-01T01:29:38.940Z,34.70
2018-03-01T01:32:06.522Z,34.60
2018-03-01T01:34:34.877Z,34.50
2018-03-01T01:37:02.441Z,34.50
2018-03-01T01:39:30.032Z,34.60
2018-03-01T01:41:58.369Z,34.30
2018-03-01T01:44:25.957Z,34.20
2018-03-01T01:46:53.525Z,34.30
2018-03-01T01:49:21.841Z,34.20
2018-03-01T01:51:49.411Z,34.20
2018-03-01T01:54:17.013Z,34.10
2018-03-01T01:56:44.584Z,33.90
2018-03-01T01:59:12.182Z,34.40
2018-03-01T02:01:39.761Z,34.00
2018-03-01T02:04:07.448Z,33.90
2018-03-01T02:06:35.022Z,34.20
2018-03-01T02:09:02.596Z,34.40
2018-03-01T02:11:30.189Z,34.50
2018-03-01T02:13:57.762Z,34.50
2018-03-01T02:16:25.361Z,34.40
2018-03-01T02:18:53.238Z,34.50
2018-03-01T02:21:20.841Z,34.70
2018-03-01T02:23:48.413Z,34.60
2018-03-01T02:26:16.006Z,34.60
2018-03-01T02:28:43.572Z,34.70
2018-03-01T02:31:11.170Z,34.80
2018-03-01T02:33:38.742Z,34.80
2018-03-01T02:36:06.338Z,35.20
2018-03-01T02:38:33.916Z,35.00
2018-03-01T02:41:01.508Z,34.80
2018-03-01T02:43:29.077Z,34.90
2018-03-01T02:45:56.674Z,35.00
2018-03-01T02:48:25.010Z,35.00
2018-03-01T02:50:52.614Z,34.90
2018-03-01T02:53:20.187Z,35.00
2018-03-01T02:55:47.781Z,35.20
2018-03-01T02:58:15.360Z,35.70
2018-03-01T03:00:42.954Z,35.60
2018-03-01T03:03:10.521Z,35.50
2018-03-01T03:05:38.114Z,35.20
2018-03-01T03:08:05.680Z,35.60
2018-03-01T03:10:33.269Z,35.60
2018-03-01T03:13:01.601Z,35.20
2018-03-01T03:15:29.177Z,35.30
2018-03-01T03:17:56.773Z,35.20
2018-03-01T03:20:24.354Z,35.30
2018-03-01T03:22:51.951Z,35.50
2018-03-01T03:25:19.526Z,35.50
2018-03-01T03:27:47.117Z,35.30
2018-03-01T03:30:14.699Z,35.40
2018-03-01T03:32:42.290Z,35.60
2018-03-01T03:35:09.869Z,35.80
2018-03-01T03:37:37.463Z,35.60
2018-03-01T03:40:05.044Z,35.60
2018-03-01T03:42:32.645Z,35.70
2018-03-01T03:45:00.232Z,35.70
2018-03-01T03:47:27.830Z,35.90
2018-03-01T03:49:55.401Z,35.90
2018-03-01T03:52:22.993Z,35.80
2018-03-01T03:54:50.556Z,35.90
2018-03-01T03:57:18.919Z,35.80
2018-03-01T03:59:46.492Z,35.70
2018-03-01T04:02:14.919Z,35.30
2018-03-01T04:04:42.489Z,35.30
2018-03-01T04:07:10.094Z,35.40
2018-03-01T04:09:38.442Z,35.70
2018-03-01T04:12:06.080Z,35.50
2018-03-01T04:14:33.657Z,35.70
2018-03-01T04:17:01.255Z,35.80
2018-03-01T04:19:28.820Z,35.80
2018-03-01T04:21:57.183Z,36.00
2018-03-01T04:24:25.576Z,36.00
2018-03-01T04:26:53.128Z,35.90
2018-03-01T04:29:20.706Z,35.80
2018-03-01T04:31:48.470Z,35.50
2018-03-01T04:34:16.073Z,35.40
2018-03-01T04:36:43.640Z,35.50
2018-03-01T04:39:11.229Z,35.80
2018-03-01T04:41:39.570Z,35.80
2018-03-01T04:44:07.157Z,35.70
2018-03-01T04:46:34.733Z,36.00
2018-03-01T04:49:02.352Z,36.10
2018-03-01T04:51:29.929Z,36.30
2018-03-01T04:53:57.521Z,36.40
2018-03-01T04:56:25.151Z,36.20
2018-03-01T04:58:52.736Z,35.90
2018-03-01T05:01:20.309Z,35.90
2018-03-01T05:03:48.097Z,35.90
2018-03-01T05:06:15.661Z,35.60
2018-03-01T05:08:43.257Z,35.70
2018-03-01T05:11:11.602Z,36.40
2018-03-01T05:13:39.188Z,36.40
2018-03-01T05:16:06.762Z,36.30
2018-03-01T05:18:35.167Z,36.30
2018-03-01T05:21:03.536Z,36.30
2018-03-01T05:23:31.128Z,36.40
2018-03-01T05:25:58.701Z,36.50
2018-03-01T05:28:26.297Z,36.40
2018-03-01T05:30:54.622Z,36.50
2018-03-01T05:33:22.222Z,36.50
2018-03-01T05:35:49.791Z,36.30
2018-03-01T05:38:18.965Z,36.50
2018-03-01T05:40:46.558Z,36.40
2018-03-01T05:43:14.129Z,36.60
2018-03-01T05:45:41.736Z,36.50
2018-03-01T05:48:09.314Z,36.20
2018-03-01T05:50:37.677Z,36.40
2018-03-01T05:53:05.256Z,36.30
2018-03-01T05:55:32.854Z,36.20
2018-03-01T05:58:00.429Z,36.30
2018-03-01T06:00:28.021Z,36.50
2018-03-01T06:02:56.369Z,36.90
2018-03-01T06:05:23.974Z,36.40
2018-03-01T06:07:51.548Z,36.40
2018-03-01T06:10:19.214Z,36.30
2018-03-01T06:12:46.789Z,36.60
2018-03-01T06:15:14.394Z,36.60
2018-03-01T06:17:41.969Z,36.80
2018-03-01T06:20:09.663Z,36.70
2018-03-01T06:22:37.242Z,36.40
2018-03-01T06:25:04.837Z,36.30
2018-03-01T06:27:32.400Z,36.40
2018-03-01T06:30:00.847Z,36.50
2018-03-01T06:32:28.479Z,36.60
2018-03-01T06:34:56.074Z,36.70
2018-03-01T06:37:24.048Z,37.10
2018-03-01T06:39:52.270Z,36.80
2018-03-01T06:42:20.773Z,37.40
2018-03-01T06:44:48.987Z,37.20
2018-03-01T06:47:17.811Z,36.80
2018-03-01T06:49:45.986Z,36.70
2018-03-01T06:52:14.395Z,36.80
2018-03-01T06:54:42.906Z,36.80
2018-03-01T06:57:10.937Z,36.50
2018-03-01T06:59:38.695Z,36.80
2018-03-01T07:02:06.333Z,36.50
2018-03-01T07:04:33.934Z,36.20
2018-03-01T07:07:01.917Z,36.60
2018-03-01T07:09:29.512Z,37.10
2018-03-01T07:11:57.085Z,37.00
2018-03-01T07:14:24.669Z,37.00
2018-03-01T07:16:52.296Z,37.10
2018-03-01T07:19:21.049Z,36.70
2018-03-01T07:21:50.205Z,36.90
2018-03-01T07:24:18.382Z,36.80
2018-03-01T07:26:46.018Z,37.00
2018-03-01T07:29:13.596Z,37.00
2018-03-01T07:31:41.193Z,36.70
2018-03-01T07:34:08.771Z,36.50
2018-03-01T07:36:36.789Z,36.90
2018-03-01T07:39:04.418Z,36.80
2018-03-01T07:41:32.020Z,36.90
2018-03-01T07:43:59.603Z,36.90
2018-03-01T07:46:27.201Z,36.60
2018-03-01T07:48:54.793Z,36.90
2018-03-01T07:51:22.388Z,36.80
2018-03-01T07:53:49.962Z,36.70
2018-03-01T07:56:17.582Z,36.50
2018-03-01T07:58:45.731Z,36.60
2018-03-01T08:01:13.330Z,36.60
2018-03-01T08:03:40.896Z,36.60
2018-03-01T08:06:08.490Z,36.70
2018-03-01T08:08:36.071Z,36.60
2018-03-01T08:11:03.674Z,36.70
2018-03-01T08:13:31.256Z,36.50
2018-03-01T08:15:59.613Z,36.80
2018-03-01T08:18:27.293Z,36.70
2018-03-01T08:20:54.885Z,36.60
2018-03-01T08:23:22.452Z,36.60
2018-03-01T08:25:50.045Z,36.50
2018-03-01T08:28:17.623Z,36.60
2018-03-01T08:30:45.225Z,36.40
2018-03-01T08:33:12.803Z,36.30
2018-03-01T08:35:40.505Z,36.30
2018-03-01T08:38:09.302Z,36.20
2018-03-01T08:40:36.954Z,36.20
2018-03-01T08:43:04.565Z,36.40
2018-03-01T08:45:32.133Z,36.10
2018-03-01T08:47:59.741Z,36.20
2018-03-01T08:50:27.621Z,36.10
2018-03-01T08:52:55.408Z,35.90
2018-03-01T08:55:22.990Z,35.80
2018-03-01T08:57:50.598Z,36.00
2018-03-01T09:00:18.451Z,35.60
2018-03-01T09:02:46.822Z,35.30
2018-03-01T09:05:15.427Z,35.20
2018-03-01T09:07:43.077Z,35.20
2018-03-01T09:10:11.418Z,35.20
2018-03-01T09:12:39.030Z,35.20
2018-03-01T09:15:06.602Z,35.40
2018-03-01T09:17:34.193Z,34.90
2018-03-01T09:20:01.781Z,34.70
2018-03-01T09:22:30.141Z,35.10
2018-03-01T09:24:57.715Z,35.00
2018-03-01T09:27:25.301Z,34.70
2018-03-01T09:29:53.065Z,34.50
2018-03-01T09:32:20.662Z,34.60
2018-03-01T09:34:48.242Z,34.40
2018-03-01T09:37:15.851Z,34.00
2018-03-01T09:39:43.420Z,34.50
2018-03-01T09:42:10.983Z,34.20
2018-03-01T09:44:38.573Z,34.00
2018-03-01T09:47:06.160Z,33.90
2018-03-01T09:49:33.757Z,33.70
2018-03-01T09:52:01.321Z,33.50
2018-03-01T09:54:29.258Z,33.60
2018-03-01T09:56:56.862Z,33.80
2018-03-01T09:59:25.221Z,34.10
2018-03-01T10:01:52.790Z,34.10
2018-03-01T10:04:20.373Z,33.70
2018-03-01T10:06:47.950Z,33.80
2018-03-01T10:09:15.548Z,33.90
2018-03-01T10:11:43.139Z,33.20
2018-03-01T10:14:10.734Z,33.60
2018-03-01T10:16:39.070Z,33.90
2018-03-01T10:19:06.668Z,33.80
2018-03-01T10:21:34.242Z,34.20
2018-03-01T10:24:01.831Z,34.00
2018-03-01T10:26:29.397Z,33.70
2018-03-01T10:28:56.984Z,33.20
2018-03-01T10:31:24.553Z,32.30
2018-03-01T10:33:52.142Z,34.00
2018-03-01T10:36:19.910Z,34.20
2018-03-01T10:38:47.497Z,31.50
2018-03-01T10:41:15.066Z,32.20
2018-03-01T10:43:42.661Z,31.90
2018-03-01T10:46:11.090Z,32.60
2018-03-01T10:48:38.686Z,32.60
2018-03-01T10:51:06.261Z,31.00
2018-03-01T10:53:34.686Z,31.50
2018-03-01T10:56:02.312Z,31.50
2018-03-01T10:58:29.881Z,31.20
2018-03-01T11:00:59.233Z,31.80
2018-03-01T11:03:26.803Z,30.80
2018-03-01T11:05:54.663Z,31.30
2018-03-01T11:08:22.230Z,30.80
2018-03-01T11:10:49.824Z,30.70
2018-03-01T11:13:17.407Z,31.60
2018-03-01T11:15:44.994Z,31.40
2018-03-01T11:18:12.582Z,30.50
2018-03-01T11:20:40.942Z,29.70
2018-03-01T11:23:08.513Z,29.70
2018-03-01T11:25:36.105Z,30.80
2018-03-01T11:28:03.669Z,31.30
2018-03-01T11:30:31.260Z,31.00
2018-03-01T11:32:58.824Z,30.50
2018-03-01T11:35:26.418Z,30.90
2018-03-01T11:37:53.990Z,29.60
2018-03-01T11:40:21.582Z,30.40
2018-03-01T11:42:49.177Z,30.10
2018-03-01T11:45:16.774Z,29.70
2018-03-01T11:47:44.337Z,30.20
2018-03-01T11:50:11.926Z,30.00
2018-03-01T11:52:39.510Z,31.00
2018-03-01T11:55:07.104Z,29.50
2018-03-01T11:57:35.443Z,30.40
2018-03-01T12:00:03.045Z,30.40
2018-03-01T12:02:30.613Z,30.40
2018-03-01T12:04:58.183Z,31.10
2018-03-01T12:07:25.781Z,30.30
2018-03-01T12:09:53.354Z,30.40
2018-03-01T12:12:20.950Z,30.90
2018-03-01T12:14:48.513Z,30.70
2018-03-01T12:17:16.101Z,30.30
2018-03-01T12:19:43.676Z,30.20
2018-03-01T12:22:11.265Z,30.80
2018-03-01T12:24:38.829Z,30.80
2018-03-01T12:27:07.186Z,30.70
2018-03-01T12:29:34.763Z,30.60
2018-03-01T12:32:03.131Z,31.20
2018-03-01T12:34:31.466Z,31.50
2018-03-01T12:36:59.065Z,31.30
2018-03-01T12:39:26.632Z,31.80
2018-03-01T12:41:54.994Z,31.80
2018-03-01T12:44:22.565Z,31.80
2018-03-01T12:46:50.918Z,31.80
2018-03-01T12:49:18.485Z,31.80
2018-03-01T12:51:46.077Z,31.60
2018-03-01T12:54:13.651Z,31.60
2018-03-01T12:56:41.245Z,32.20
2018-03-01T12:59:08.840Z,31.80
2018-03-01T13:01:36.426Z,32.00
2018-03-01T13:04:04.936Z,31.90
2018-03-01T13:06:32.530Z,31.70
2018-03-01T13:09:00.328Z,31.30
2018-03-01T13:11:27.926Z,31.60
2018-03-01T13:13:55.498Z,31.90
2018-03-01T13:16:23.067Z,31.70
2018-03-01T13:18:50.662Z,31.90
2018-03-01T13:21:18.242Z,31.80
2018-03-01T13:23:45.834Z,31.60
2018-03-01T13:26:13.404Z,32.30
2018-03-01T13:28:40.988Z,32.00
2018-03-01T13:34:31.130Z,32.30
2018-03-01T13:36:59.107Z,32.20
2018-03-01T13:39:26.656Z,32.20
2018-03-01T13:41:55.014Z,32.00
2018-03-01T13:44:22.601Z,32.00
2018-03-01T13:46:50.164Z,32.20
2018-03-01T13:49:17.753Z,32.20
2018-03-01T13:51:45.317Z,32.00
2018-03-01T13:54:13.687Z,31.70
2018-03-01T13:56:41.258Z,31.70
2018-03-01T13:59:08.853Z,31.20
2018-03-01T14:01:36.415Z,32.20
2018-03-01T14:04:04.001Z,32.10
2018-03-01T14:06:32.381Z,32.10
2018-03-01T14:08:59.977Z,32.10
2018-03-01T14:11:28.314Z,32.20
2018-03-01T14:13:55.940Z,32.20
2018-03-01T14:16:23.507Z,32.10
2018-03-01T14:18:58.645Z,31.70
2018-03-01T14:21:42.033Z,32.30
2018-03-01T14:24:12.030Z,32.70
2018-03-01T14:26:45.367Z,32.70
2018-03-01T14:29:28.744Z,32.30
2018-03-01T14:31:56.314Z,32.20
2018-03-01T14:34:23.998Z,32.50
2018-03-01T14:36:51.560Z,32.50
2018-03-01T14:39:19.147Z,32.70
2018-03-01T14:41:46.727Z,32.80
2018-03-01T14:44:14.316Z,32.40
2018-03-01T14:46:41.885Z,32.50
2018-03-01T14:49:09.477Z,33.00
2018-03-01T14:51:37.037Z,32.90
2018-03-01T14:54:04.631Z,32.70
2018-03-01T14:56:32.962Z,33.20
2018-03-01T14:59:00.547Z,33.20
2018-03-01T15:01:28.109Z,32.70
2018-03-01T15:03:55.702Z,33.00
2018-03-01T15:06:23.269Z,33.30
2018-03-01T15:08:50.858Z,33.00
2018-03-01T15:11:18.653Z,33.30
2018-03-01T15:13:46.691Z,33.40
2018-03-01T15:16:14.952Z,33.10
2018-03-01T15:18:43.539Z,33.40
2018-03-01T15:21:11.595Z,33.20
2018-03-01T15:23:39.357Z,33.60
2018-03-01T15:26:06.956Z,33.10
2018-03-01T15:28:34.527Z,33.50
2018-03-01T15:31:02.118Z,33.50
2018-03-01T15:34:25.294Z,33.30
2018-03-01T15:52:30.301Z,33.90
2018-03-01T15:54:57.902Z,34.00
2018-03-01T15:58:21.197Z,34.40
2018-03-01T16:00:48.825Z,33.90
2018-03-01T16:03:17.161Z,33.70
2018-03-01T16:05:44.762Z,33.60
2018-03-01T16:08:12.366Z,33.90
2018-03-01T16:10:39.958Z,33.80
2018-03-01T16:13:07.527Z,33.90
2018-03-01T16:15:35.114Z,34.30
2018-03-01T16:18:03.445Z,35.00
2018-03-01T16:20:31.040Z,35.00
2018-03-01T16:22:58.614Z,34.80
2018-03-01T16:25:26.206Z,34.90
2018-03-01T16:27:53.777Z,35.00
2018-03-01T16:30:21.373Z,35.00
2018-03-01T16:32:49.708Z,35.20
2018-03-01T16:35:17.268Z,35.10
2018-03-01T16:37:44.857Z,35.20
2018-03-01T16:43:53.113Z,35.10
2018-03-01T16:46:20.706Z,35.30
2018-03-01T16:48:48.279Z,35.90
2018-03-01T16:51:16.713Z,35.20
2018-03-01T16:53:44.324Z,35.30
2018-03-01T16:56:11.902Z,35.30
2018-03-01T16:58:39.472Z,35.20
2018-03-01T17:01:07.061Z,34.90
2018-03-01T17:03:34.630Z,35.60
2018-03-01T17:06:02.214Z,35.40
2018-03-01T17:08:29.814Z,35.20
2018-03-01T17:10:58.148Z,35.00
2018-03-01T17:13:25.780Z,35.00
2018-03-01T17:15:53.362Z,35.30
2018-03-01T17:18:20.954Z,35.10
2018-03-01T17:20:48.529Z,35.50
2018-03-01T17:23:16.883Z,35.40
2018-03-01T17:25:45.244Z,35.30
2018-03-01T17:28:12.840Z,35.20
2018-03-01T17:30:40.417Z,35.20
2018-03-01T17:33:08.042Z,34.90
2018-03-01T17:35:35.633Z,35.50
2018-03-01T17:38:03.221Z,35.80
2018-03-01T17:40:30.798Z,35.70
2018-03-01T17:42:59.189Z,35.70
2018-03-01T17:45:26.752Z,35.80
2018-03-01T17:47:54.346Z,35.80
2018-03-01T17:50:21.921Z,36.10
2018-03-01T17:52:49.509Z,36.10
2018-03-01T17:55:17.072Z,36.40
2018-03-01T17:57:45.429Z,36.40
2018-03-01T18:00:12.998Z,36.40
2018-03-01T18:02:40.585Z,36.30
2018-03-01T18:05:08.194Z,36.40
2018-03-01T18:07:35.785Z,36.50
2018-03-01T18:10:03.383Z,36.70
2018-03-01T18:12:30.982Z,36.90
2018-03-01T18:14:58.544Z,36.90
2018-03-01T18:17:26.105Z,36.50
2018-03-01T18:19:53.689Z,36.70
2018-03-01T18:22:21.264Z,36.60
2018-03-01T18:24:48.844Z,36.80
2018-03-01T18:27:17.181Z,37.10
2018-03-01T18:29:44.779Z,37.00
2018-03-01T18:32:12.353Z,37.20
2018-03-01T18:34:39.941Z,37.30
2018-03-01T18:37:07.962Z,37.60
2018-03-01T18:39:36.040Z,37.60
2018-03-01T18:42:03.656Z,37.60
2018-03-01T18:44:31.275Z,37.60
2018-03-01T18:46:58.854Z,37.70
2018-03-01T18:49:26.456Z,38.20
2018-03-01T18:51:54.800Z,38.20
2018-03-01T18:54:22.402Z,37.60
2018-03-01T18:56:49.982Z,37.60
2018-03-01T18:59:17.590Z,37.70
2018-03-01T19:01:45.160Z,38.30
2018-03-01T19:04:15.208Z,38.50
2018-03-01T19:06:44.470Z,37.70
2018-03-01T19:09:12.104Z,37.70
2018-03-01T19:11:39.682Z,37.70
2018-03-01T19:14:07.290Z,37.90
2018-03-01T19:16:34.861Z,37.70
2018-03-01T19:19:02.430Z,37.70
2018-03-01T19:21:30.025Z,37.70
2018-03-01T19:23:57.645Z,37.30
2018-03-01T19:26:25.979Z,37.20
2018-03-01T19:28:53.550Z,37.20
2018-03-01T19:31:21.139Z,37.50
2018-03-01T19:33:48.706Z,37.50
2018-03-01T19:36:16.302Z,37.70
2018-03-01T19:38:43.868Z,37.60
2018-03-01T19:41:11.462Z,37.40
2018-03-01T19:43:39.034Z,37.60
2018-03-01T19:46:06.634Z,37.50
2018-03-01T19:48:34.202Z,38.00
2018-03-01T19:51:01.794Z,37.90
2018-03-01T19:53:30.739Z,38.00
2018-03-01T19:55:58.334Z,38.00
2018-03-01T19:58:25.900Z,37.90
2018-03-01T20:00:53.485Z,38.00
2018-03-01T20:03:21.867Z,37.90
2018-03-01T20:05:50.323Z,37.90
2018-03-01T20:08:18.122Z,38.30
2018-03-01T20:10:45.830Z,38.30
2018-03-01T20:13:13.802Z,38.30
2018-03-01T20:15:42.512Z,38.50
2018-03-01T20:18:10.343Z,38.20
2018-03-01T20:20:37.940Z,38.60
2018-03-01T20:23:05.520Z,38.50
2018-03-01T20:25:33.126Z,38.50
2018-03-01T20:28:00.864Z,38.50
2018-03-01T20:30:29.197Z,39.00
2018-03-01T20:32:56.903Z,39.00
2018-03-01T20:35:25.437Z,38.40
2018-03-01T20:37:53.599Z,38.40
2018-03-01T20:40:21.976Z,38.60
2018-03-01T20:42:50.501Z,38.40
2018-03-01T20:45:18.081Z,38.40
2018-03-01T20:47:46.046Z,38.40
2018-03-01T20:50:13.877Z,38.20
2018-03-01T20:52:41.470Z,38.10
2018-03-01T20:55:09.114Z,38.00
2018-03-01T20:57:36.766Z,38.20
2018-03-01T21:00:05.045Z,38.20
2018-03-01T21:02:32.628Z,38.10
2018-03-01T21:05:00.267Z,38.20
2018-03-01T21:07:27.862Z,38.20
2018-03-01T21:09:55.434Z,38.10
2018-03-01T21:12:23.798Z,38.60
2018-03-01T21:14:51.361Z,38.30
2018-03-01T21:17:18.954Z,38.30
2018-03-01T21:19:46.517Z,38.60
2018-03-01T21:22:14.109Z,38.70
2018-03-01T21:24:41.680Z,38.50
2018-03-01T21:27:09.282Z,38.60
2018-03-01T21:29:36.863Z,38.50
2018-03-01T21:32:04.472Z,38.40
2018-03-01T21:34:32.043Z,38.30
2018-03-01T21:36:59.609Z,38.30
2018-03-01T21:39:27.964Z,37.70
2018-03-01T21:41:55.543Z,38.20
2018-03-01T21:44:23.133Z,38.30
2018-03-01T21:47:02.558Z,38.80
2018-03-01T21:49:30.150Z,38.90
2018-03-01T21:51:57.716Z,38.60
2018-03-01T21:54:25.317Z,38.80
2018-03-01T21:56:53.648Z,38.90
2018-03-01T21:59:21.229Z,38.70
2018-03-01T22:01:48.789Z,38.70
2018-03-01T22:04:16.386Z,38.80
2018-03-01T22:06:44.725Z,39.00
2018-03-01T22:09:12.314Z,38.90
2018-03-01T22:11:39.886Z,39.20
2018-03-01T22:14:07.469Z,38.90
2018-03-01T22:16:35.030Z,38.90
2018-03-01T22:19:02.622Z,38.90
2018-03-01T22:21:30.189Z,39.10
2018-03-01T22:23:57.786Z,39.30
2018-03-01T22:26:25.358Z,39.50
2018-03-01T22:28:52.986Z,39.70
2018-03-01T22:31:20.584Z,39.70
2018-03-01T22:33:48.182Z,39.80
2018-03-01T22:36:15.758Z,39.80
2018-03-01T22:38:44.112Z,39.60
2018-03-01T22:41:11.692Z,39.60
2018-03-01T22:43:39.282Z,39.60
2018-03-01T22:46:06.853Z,39.80
2018-03-01T22:48:34.450Z,39.80
2018-03-01T22:51:02.033Z,39.90
2018-03-01T22:53:30.387Z,40.40
2018-03-01T22:55:57.959Z,39.80
2018-03-01T22:58:25.605Z,39.70
2018-03-01T23:00:54.077Z,39.60
2018-03-01T23:03:21.641Z,39.90
2018-03-01T23:05:49.232Z,39.80
2018-03-01T23:08:17.560Z,40.20
2018-03-01T23:10:45.146Z,40.20
2018-03-01T23:13:12.714Z,40.30
2018-03-01T23:15:40.310Z,40.50
2018-03-01T23:18:07.882Z,40.30
2018-03-01T23:20:35.482Z,40.50
2018-03-01T23:23:03.046Z,40.40
2018-03-01T23:25:30.632Z,40.00
2018-03-01T23:27:58.226Z,40.30
2018-03-01T23:30:25.825Z,40.30
2018-03-01T23:32:53.402Z,40.30
2018-03-01T23:35:21.757Z,40.20
2018-03-01T23:37:49.333Z,40.00
2018-03-01T23:40:16.916Z,40.30
2018-03-01T23:42:44.686Z,40.30
2018-03-01T23:45:12.273Z,40.30
2018-03-01T23:47:39.843Z,40.10
2018-03-01T23:50:07.437Z,40.10
2018-03-01T23:52:35.776Z,40.00
2018-03-01T23:55:03.387Z,39.90
2018-03-01T23:57:30.948Z,40.00
2018-03-01T23:59:58.534Z,40.10
